createdAt,value
2023-04-24T00:02:58.253Z,99451.19
2023-04-24T00:08:01.606Z,99451.34
2023-04-24T00:13:03.354Z,99435.78
2023-04-24T00:18:05.540Z,99424.53
2023-04-24T00:23:08.852Z,99426.88
2023-04-24T00:28:10.631Z,99429.16
2023-04-24T00:33:12.365Z,99434.44
2023-04-24T00:38:15.823Z,99424.16
2023-04-24T00:43:17.692Z,99420.59
2023-04-24T00:48:19.457Z,99425.88
2023-04-24T00:53:22.912Z,99433.19
2023-04-24T00:58:24.867Z,99433.50
2023-04-24T01:03:29.507Z,99425.97
2023-04-24T01:08:32.739Z,99426.38
2023-04-24T01:13:34.760Z,99426.38
2023-04-24T01:18:36.537Z,99430.00
2023-04-24T01:23:39.624Z,99428.75
2023-04-24T01:28:41.345Z,99421.53
2023-04-24T01:33:43.174Z,99420.19
2023-04-24T01:38:46.232Z,99416.84
2023-04-24T01:43:47.956Z,99408.84
2023-04-24T01:48:49.671Z,99406.78
2023-04-24T01:53:52.872Z,99412.25
2023-04-24T01:58:54.645Z,99416.88
2023-04-24T02:03:56.430Z,99408.88
2023-04-24T02:09:00.140Z,99399.78
2023-04-24T02:14:02.090Z,99406.84
2023-04-24T02:19:03.931Z,99396.66
2023-04-24T02:24:07.124Z,99406.47
2023-04-24T02:29:08.892Z,99409.25
2023-04-24T02:34:10.585Z,99402.31
2023-04-24T02:39:14.400Z,99403.09
2023-04-24T02:44:16.256Z,99396.28
2023-04-24T02:49:18.034Z,99405.16
2023-04-24T02:54:21.143Z,99399.84
2023-04-24T02:59:22.943Z,99393.13
2023-04-24T03:04:24.972Z,99395.84
2023-04-24T03:09:28.154Z,99408.19
2023-04-24T03:14:32.164Z,99401.22
2023-04-24T03:19:33.925Z,99397.88
2023-04-24T03:24:42.352Z,99398.25
2023-04-24T03:29:44.770Z,99401.78
2023-04-24T03:34:47.820Z,99400.28
2023-04-24T03:39:51.925Z,99404.72
2023-04-24T03:44:58.145Z,99391.78
2023-04-24T03:50:06.582Z,99399.75
2023-04-24T03:55:13.840Z,99386.63
2023-04-24T04:00:20.430Z,99392.09
2023-04-24T04:05:28.378Z,99391.22
2023-04-24T04:10:31.505Z,99381.69
2023-04-24T04:15:33.249Z,99386.03
2023-04-24T04:20:34.985Z,99395.06
2023-04-24T04:25:38.440Z,99400.28
2023-04-24T04:30:41.110Z,99397.44
2023-04-24T04:35:43.509Z,99397.56
2023-04-24T04:40:47.459Z,99399.38
2023-04-24T04:45:52.338Z,99400.34
2023-04-24T04:51:18.821Z,99409.81
2023-04-24T04:56:23.282Z,99412.44
2023-04-24T05:01:26.438Z,99420.88
2023-04-24T05:06:28.548Z,99427.09
2023-04-24T05:11:32.152Z,99418.38
2023-04-24T05:16:37.836Z,99418.84
2023-04-24T05:21:41.456Z,99422.91
2023-04-24T05:26:45.682Z,99437.03
2023-04-24T05:31:49.117Z,99430.69
2023-04-24T05:36:51.639Z,99433.84
2023-04-24T05:41:54.740Z,99426.44
2023-04-24T05:46:57.027Z,99420.16
2023-04-24T05:51:59.135Z,99427.81
2023-04-24T05:57:05.434Z,99427.47
2023-04-24T06:02:19.923Z,99427.97
2023-04-24T06:07:22.264Z,99425.72
2023-04-24T06:12:26.887Z,99430.59
2023-04-24T06:17:34.954Z,99426.59
2023-04-24T06:22:37.166Z,99435.41
2023-04-24T06:27:40.338Z,99435.78
2023-04-24T06:32:43.630Z,99438.50
2023-04-24T06:37:45.550Z,99429.22
2023-04-24T06:42:48.713Z,99434.13
2023-04-24T06:47:50.652Z,99440.66
2023-04-24T06:52:52.412Z,99443.06
2023-04-24T06:57:55.472Z,99437.09
2023-04-24T07:02:58.502Z,99443.59
2023-04-24T07:08:00.356Z,99431.75
2023-04-24T07:13:03.488Z,99432.34
2023-04-24T07:18:05.977Z,99418.09
2023-04-24T07:23:07.897Z,99427.72
2023-04-24T07:28:11.040Z,99427.75
2023-04-24T07:33:14.329Z,99441.16
2023-04-24T07:38:16.217Z,99467.00
2023-04-24T07:43:21.008Z,99483.91
2023-04-24T07:48:23.222Z,99475.28
2023-04-24T07:53:24.977Z,99485.63
2023-04-24T07:58:28.034Z,99490.19
2023-04-24T08:03:29.932Z,99481.78
2023-04-24T08:08:31.781Z,99476.59
2023-04-24T08:13:34.844Z,99472.59
2023-04-24T08:18:37.030Z,99491.03
2023-04-24T08:23:38.790Z,99509.03
2023-04-24T08:28:41.905Z,99512.88
2023-04-24T08:33:45.929Z,99512.16
2023-04-24T08:38:47.708Z,99514.06
2023-04-24T08:43:51.795Z,99504.19
2023-04-24T08:48:53.654Z,99510.38
2023-04-24T08:53:55.956Z,99518.56
2023-04-24T08:58:59.035Z,99525.13
2023-04-24T09:04:01.886Z,99511.75
2023-04-24T09:09:04.472Z,99509.16
2023-04-24T09:14:07.597Z,99514.72
2023-04-24T09:19:09.312Z,99521.81
2023-04-24T09:24:18.476Z,99515.00
2023-04-24T09:29:21.484Z,99521.38
2023-04-24T09:34:24.178Z,99543.28
2023-04-24T09:39:25.986Z,99533.03
2023-04-24T09:44:29.228Z,99528.72
2023-04-24T09:49:31.664Z,99526.72
2023-04-24T09:54:34.177Z,99518.19
2023-04-24T09:59:39.467Z,99503.03
2023-04-24T10:04:41.250Z,99514.16
2023-04-24T10:09:43.254Z,99513.41
2023-04-24T10:14:48.095Z,99519.28
2023-04-24T10:19:50.411Z,99513.47
2023-04-24T10:24:52.107Z,99524.34
2023-04-24T10:29:55.565Z,99529.03
2023-04-24T10:34:57.526Z,99529.09
2023-04-24T10:39:59.677Z,99509.97
2023-04-24T10:45:07.292Z,99516.22
2023-04-24T10:50:10.592Z,99522.75
2023-04-24T10:55:13.625Z,99525.53
2023-04-24T11:00:19.275Z,99533.91
2023-04-24T11:05:21.401Z,99539.72
2023-04-24T11:10:26.762Z,99546.22
2023-04-24T11:15:30.574Z,99546.16
2023-04-24T11:20:32.363Z,99548.03
2023-04-24T11:25:34.849Z,99542.69
2023-04-24T11:30:37.913Z,99545.41
2023-04-24T11:35:40.881Z,99544.25
2023-04-24T11:40:42.746Z,99543.56
2023-04-24T11:45:50.194Z,99547.63
2023-04-24T11:50:52.137Z,99550.28
2023-04-24T11:55:53.920Z,99540.78
2023-04-24T12:01:00.378Z,99532.66
2023-04-24T12:06:08.954Z,99545.06
2023-04-24T12:11:11.090Z,99549.88
2023-04-24T12:16:14.384Z,99557.78
2023-04-24T12:21:21.415Z,99571.88
2023-04-24T12:26:25.444Z,99569.84
2023-04-24T12:31:30.491Z,99561.28
2023-04-24T12:36:32.477Z,99553.50
2023-04-24T12:41:34.258Z,99548.56
2023-04-24T12:46:37.420Z,99559.38
2023-04-24T12:51:39.228Z,99581.53
2023-04-24T12:56:41.128Z,99569.03
2023-04-24T13:01:44.349Z,99570.63
2023-04-24T13:06:46.104Z,99567.53
2023-04-24T13:11:47.835Z,99564.94
2023-04-24T13:16:50.982Z,99566.47
2023-04-24T13:21:53.031Z,99578.50
2023-04-24T13:26:54.826Z,99593.34
2023-04-24T13:31:57.940Z,99599.56
2023-04-24T13:36:59.969Z,99602.31
2023-04-24T13:42:04.444Z,99593.69
2023-04-24T13:47:08.032Z,99600.50
2023-04-24T13:52:11.274Z,99596.16
2023-04-24T13:57:13.372Z,99595.53
2023-04-24T14:02:16.477Z,99593.06
2023-04-24T14:07:18.225Z,99604.22
2023-04-24T14:12:20.710Z,99602.72
2023-04-24T14:17:23.844Z,99607.94
2023-04-24T14:22:25.832Z,99619.16
2023-04-24T14:27:27.548Z,99637.56
2023-04-24T14:32:31.886Z,99644.88
2023-04-24T14:37:33.640Z,99653.19
2023-04-24T14:42:36.088Z,99669.72
2023-04-24T14:47:39.234Z,99674.25
2023-04-24T14:52:41.205Z,99680.38
2023-04-24T14:57:43.206Z,99701.59
2023-04-24T15:02:46.505Z,99717.81
2023-04-24T15:07:48.348Z,99722.53
2023-04-24T15:12:50.035Z,99740.19
2023-04-24T15:17:53.145Z,99759.69
2023-04-24T15:22:55.239Z,99757.97
2023-04-24T15:27:57.006Z,99766.69
2023-04-24T15:33:00.767Z,99769.84
2023-04-24T15:38:03.381Z,99773.09
2023-04-24T15:43:05.166Z,99780.81
2023-04-24T15:48:08.272Z,99785.22
2023-04-24T15:53:10.211Z,99802.03
2023-04-24T15:58:12.032Z,99811.00
2023-04-24T16:03:15.262Z,99810.25
2023-04-24T16:08:17.459Z,99820.88
2023-04-24T16:13:19.257Z,99826.28
2023-04-24T16:18:22.984Z,99831.59
2023-04-24T16:23:24.754Z,99836.09
2023-04-24T16:28:27.722Z,99844.75
2023-04-24T16:33:31.664Z,99847.28
2023-04-24T16:38:33.501Z,99839.47
2023-04-24T16:43:35.394Z,99854.22
2023-04-24T16:48:38.446Z,99848.88
2023-04-24T16:53:40.267Z,99849.97
2023-04-24T16:58:42.010Z,99845.53
2023-04-24T17:03:45.468Z,99847.38
2023-04-24T17:08:47.680Z,99848.25
2023-04-24T17:13:49.678Z,99847.41
2023-04-24T17:18:52.721Z,99849.13
2023-04-24T17:23:54.464Z,99845.53
2023-04-24T17:28:56.229Z,99847.31
2023-04-24T17:33:59.910Z,99842.91
2023-04-24T17:39:01.907Z,99857.75
2023-04-24T17:44:03.674Z,99859.59
2023-04-24T17:49:06.726Z,99851.84
2023-04-24T17:54:08.522Z,99872.63
2023-04-24T17:59:10.245Z,99870.81
2023-04-24T18:04:13.456Z,99878.00
2023-04-24T18:09:17.792Z,99875.19
2023-04-24T18:14:19.573Z,99879.09
2023-04-24T18:19:22.680Z,99894.00
2023-04-24T18:24:24.530Z,99892.50
2023-04-24T18:29:26.313Z,99903.19
2023-04-24T18:34:31.152Z,99904.91
2023-04-24T18:39:33.086Z,99898.97
2023-04-24T18:44:34.881Z,99906.91
2023-04-24T18:49:39.111Z,99916.50
2023-04-24T18:54:41.110Z,99918.25
2023-04-24T18:59:43.005Z,99917.47
2023-04-24T19:04:46.229Z,99928.75
2023-04-24T19:09:48.094Z,99934.09
2023-04-24T19:14:51.752Z,99937.47
2023-04-24T19:19:55.405Z,99935.69
2023-04-24T19:24:58.552Z,99945.34
2023-04-24T19:30:00.473Z,99950.56
2023-04-24T19:35:04.103Z,99953.22
2023-04-24T19:40:07.747Z,99960.19
2023-04-24T19:45:11.430Z,99968.97
2023-04-24T19:50:15.095Z,99972.56
2023-04-24T19:55:17.431Z,99967.41
2023-04-24T20:00:19.406Z,99965.66
2023-04-24T20:05:22.783Z,99962.19
2023-04-24T20:10:24.684Z,99962.19
2023-04-24T20:15:26.504Z,99972.63
2023-04-24T20:20:29.681Z,99981.34
2023-04-24T20:25:31.408Z,99985.72
2023-04-24T20:30:33.348Z,99976.16
2023-04-24T20:35:36.698Z,99983.13
2023-04-24T20:40:46.861Z,99978.78
2023-04-24T20:45:56.315Z,99972.72
2023-04-24T20:50:59.503Z,99968.34
2023-04-24T20:56:01.356Z,99971.84
2023-04-24T21:01:03.280Z,99970.16
2023-04-24T21:06:06.725Z,99965.84
2023-04-24T21:11:08.451Z,99965.00
2023-04-24T21:16:10.229Z,99965.03
2023-04-24T21:21:13.312Z,99954.66
2023-04-24T21:26:15.325Z,99954.66
2023-04-24T21:31:17.068Z,99954.66
2023-04-24T21:36:20.243Z,99958.16
2023-04-24T21:41:22.761Z,99961.66
2023-04-24T21:46:24.644Z,99963.38
2023-04-24T21:51:28.405Z,99959.03
2023-04-24T21:56:30.149Z,99959.00
2023-04-24T22:01:33.170Z,99959.00
2023-04-24T22:06:36.497Z,99957.25
2023-04-24T22:11:38.836Z,99952.00
2023-04-24T22:16:43.353Z,99952.84
2023-04-24T22:21:46.457Z,99951.13
2023-04-24T22:26:48.718Z,99957.22
2023-04-24T22:31:50.645Z,99958.09
2023-04-24T22:36:53.810Z,99961.59
2023-04-24T22:41:55.584Z,99955.50
2023-04-24T22:46:57.774Z,99947.69
2023-04-24T22:52:01.798Z,99946.81
2023-04-24T22:57:03.975Z,99947.69
2023-04-24T23:02:05.826Z,99950.31
2023-04-24T23:07:08.985Z,99948.59
2023-04-24T23:12:10.828Z,99948.59
2023-04-24T23:17:12.564Z,99951.19
2023-04-24T23:22:15.947Z,99964.22
2023-04-24T23:27:17.965Z,99952.06
2023-04-24T23:32:19.902Z,99958.16
2023-04-24T23:37:23.111Z,99953.81
2023-04-24T23:42:24.853Z,99946.84
2023-04-24T23:47:26.687Z,99939.06
2023-04-24T23:52:29.750Z,99936.44
2023-04-24T23:57:32.147Z,99939.06
